createdAt,value
2023-04-07T00:00:07.669Z,9.23
2023-04-07T00:02:33.428Z,7.43
2023-04-07T00:04:59.388Z,8.40
2023-04-07T00:07:25.611Z,9.27
2023-04-07T00:09:51.399Z,9.07
2023-04-07T00:12:17.127Z,9.50
2023-04-07T00:14:42.838Z,8.27
2023-04-07T00:17:08.567Z,9.10
2023-04-07T00:19:35.196Z,8.80
2023-04-07T00:22:00.930Z,7.57
2023-04-07T00:24:33.876Z,7.60
2023-04-07T00:27:00.399Z,8.03
2023-04-07T00:29:26.210Z,10.77
2023-04-07T00:31:51.930Z,7.70
2023-04-07T00:34:17.660Z,7.23
2023-04-07T00:36:43.413Z,8.17
2023-04-07T00:39:09.139Z,8.33
2023-04-07T00:41:35.312Z,7.53
2023-04-07T00:44:02.155Z,7.00
2023-04-07T00:46:27.989Z,7.50
2023-04-07T00:48:53.776Z,7.50
2023-04-07T00:51:20.644Z,7.60
2023-04-07T00:53:46.365Z,8.13
2023-04-07T00:56:12.628Z,7.53
2023-04-07T00:58:38.417Z,8.17
2023-04-07T01:01:06.896Z,7.13
2023-04-07T01:03:38.267Z,8.17
2023-04-07T01:06:06.074Z,7.73
2023-04-07T01:08:34.601Z,8.67
2023-04-07T01:11:06.288Z,10.63
2023-04-07T01:13:42.418Z,9.93
2023-04-07T01:16:15.031Z,8.07
2023-04-07T01:18:41.905Z,7.50
2023-04-07T01:21:10.585Z,8.80
2023-04-07T01:23:36.762Z,8.87
2023-04-07T01:26:02.438Z,7.30
2023-04-07T01:28:39.475Z,8.43
2023-04-07T01:31:07.398Z,7.57
2023-04-07T01:33:36.019Z,6.67
2023-04-07T01:36:02.635Z,6.17
2023-04-07T01:38:29.305Z,7.90
2023-04-07T01:40:56.292Z,7.33
2023-04-07T01:43:23.554Z,7.50
2023-04-07T01:45:50.497Z,6.87
2023-04-07T01:48:16.452Z,6.97
2023-04-07T01:50:43.493Z,7.93
2023-04-07T01:53:10.364Z,7.70
2023-04-07T01:55:37.376Z,7.50
2023-04-07T01:58:06.210Z,7.97
2023-04-07T02:00:33.658Z,7.53
2023-04-07T02:03:07.263Z,6.50
2023-04-07T02:05:35.466Z,9.23
2023-04-07T02:08:03.271Z,6.87
2023-04-07T02:10:29.651Z,6.93
2023-04-07T02:12:56.402Z,6.60
2023-04-07T02:15:23.072Z,6.53
2023-04-07T02:17:50.488Z,6.63
2023-04-07T02:20:16.871Z,7.33
2023-04-07T02:22:44.113Z,6.77
2023-04-07T02:25:25.926Z,7.40
2023-04-07T02:27:52.080Z,7.27
2023-04-07T02:30:18.028Z,7.80
2023-04-07T02:32:43.773Z,7.83
2023-04-07T02:35:09.848Z,6.97
2023-04-07T02:37:35.562Z,7.40
2023-04-07T02:40:01.906Z,7.47
2023-04-07T02:42:27.614Z,9.23
2023-04-07T02:44:53.304Z,7.50
2023-04-07T02:47:19.029Z,9.37
2023-04-07T02:49:44.787Z,6.73
2023-04-07T02:52:10.852Z,7.83
2023-04-07T02:54:36.686Z,7.10
2023-04-07T02:57:02.449Z,6.60
2023-04-07T02:59:28.195Z,6.83
2023-04-07T03:01:54.106Z,7.40
2023-04-07T03:04:20.963Z,6.90
2023-04-07T03:06:46.782Z,7.37
2023-04-07T03:09:12.858Z,7.50
2023-04-07T03:11:38.571Z,6.90
2023-04-07T03:14:04.306Z,8.43
2023-04-07T03:16:30.053Z,6.90
2023-04-07T03:18:55.844Z,6.30
2023-04-07T03:21:21.603Z,7.63
2023-04-07T03:23:48.017Z,6.20
2023-04-07T03:26:13.750Z,7.07
2023-04-07T03:28:39.875Z,7.90
2023-04-07T03:31:05.678Z,6.63
2023-04-07T03:33:31.410Z,7.23
2023-04-07T03:35:57.176Z,6.00
2023-04-07T03:38:22.918Z,7.40
2023-04-07T03:40:48.647Z,6.63
2023-04-07T03:43:15.212Z,8.47
2023-04-07T03:45:41.818Z,8.27
2023-04-07T03:48:11.511Z,7.70
2023-04-07T03:50:37.731Z,6.63
2023-04-07T03:53:03.475Z,7.03
2023-04-07T03:55:29.700Z,7.27
2023-04-07T03:57:55.755Z,6.80
2023-04-07T04:00:21.669Z,7.10
2023-04-07T04:02:47.639Z,6.90
2023-04-07T04:05:13.538Z,6.40
2023-04-07T04:07:39.406Z,7.43
2023-04-07T04:10:05.900Z,7.00
2023-04-07T04:12:31.959Z,7.20
2023-04-07T04:14:57.794Z,7.00
2023-04-07T04:17:26.312Z,6.60
2023-04-07T04:19:52.091Z,6.67
2023-04-07T04:22:17.947Z,7.87
2023-04-07T04:24:43.975Z,6.50
2023-04-07T04:27:09.814Z,6.30
2023-04-07T04:29:35.603Z,6.90
2023-04-07T04:32:01.401Z,5.83
2023-04-07T04:34:27.212Z,7.23
2023-04-07T04:36:53.004Z,7.17
2023-04-07T04:39:18.756Z,6.53
2023-04-07T04:41:45.511Z,6.73
2023-04-07T04:44:11.773Z,6.33
2023-04-07T04:46:42.824Z,7.67
2023-04-07T04:49:08.749Z,7.43
2023-04-07T04:51:35.121Z,7.77
2023-04-07T04:54:03.107Z,7.33
2023-04-07T04:56:28.939Z,6.13
2023-04-07T04:58:54.926Z,6.40
2023-04-07T05:01:20.713Z,6.23
2023-04-07T05:03:46.598Z,6.50
2023-04-07T05:06:12.511Z,7.13
2023-04-07T05:08:38.338Z,8.27
2023-04-07T05:11:04.173Z,6.80
2023-04-07T05:13:30.621Z,5.70
2023-04-07T05:15:56.364Z,6.13
2023-04-07T05:18:22.201Z,7.00
2023-04-07T05:20:48.219Z,7.60
2023-04-07T05:23:13.991Z,6.80
2023-04-07T05:25:40.013Z,6.10
2023-04-07T05:28:06.144Z,7.40
2023-04-07T05:30:32.017Z,7.13
2023-04-07T05:32:57.951Z,7.07
2023-04-07T05:35:23.776Z,6.10
2023-04-07T05:37:49.566Z,6.07
2023-04-07T05:40:15.393Z,6.45
2023-04-07T05:42:41.289Z,6.35
2023-04-07T05:45:07.712Z,5.55
2023-04-07T05:47:50.160Z,6.07
2023-04-07T05:50:16.485Z,6.43
2023-04-07T05:52:42.339Z,6.28
2023-04-07T05:55:08.266Z,6.53
2023-04-07T05:57:34.283Z,6.03
2023-04-07T06:00:00.252Z,6.45
2023-04-07T06:02:26.210Z,6.32
2023-04-07T06:04:52.119Z,5.88
2023-04-07T06:07:17.909Z,6.78
2023-04-07T06:09:43.728Z,6.45
2023-04-07T06:12:11.607Z,6.47
2023-04-07T06:14:37.792Z,7.10
2023-04-07T06:17:15.736Z,6.95
2023-04-07T06:19:41.541Z,7.85
2023-04-07T06:22:07.277Z,6.10
2023-04-07T06:24:33.163Z,7.20
2023-04-07T06:27:00.760Z,5.97
2023-04-07T06:29:27.163Z,6.32
2023-04-07T06:31:53.003Z,6.35
2023-04-07T06:34:18.851Z,6.38
2023-04-07T06:36:45.584Z,6.55
2023-04-07T06:39:12.239Z,6.00
2023-04-07T06:41:38.278Z,6.72
2023-04-07T06:44:08.797Z,7.07
2023-04-07T06:46:36.026Z,6.60
2023-04-07T06:49:03.076Z,7.00
2023-04-07T06:51:29.147Z,6.35
2023-04-07T06:53:55.764Z,5.68
2023-04-07T06:56:22.644Z,6.50
2023-04-07T06:58:48.407Z,6.80
2023-04-07T07:01:14.190Z,7.00
2023-04-07T07:03:40.295Z,6.60
2023-04-07T07:06:06.381Z,6.43
2023-04-07T07:08:32.197Z,6.32
2023-04-07T07:10:58.042Z,5.90
2023-04-07T07:13:25.795Z,6.97
2023-04-07T07:16:00.554Z,6.15
2023-04-07T07:18:26.433Z,6.90
2023-04-07T07:20:52.194Z,6.82
2023-04-07T07:23:18.082Z,6.25
2023-04-07T07:25:44.393Z,6.20
2023-04-07T07:28:10.617Z,6.53
2023-04-07T07:30:38.444Z,5.95
2023-04-07T07:33:04.329Z,5.18
2023-04-07T07:35:32.117Z,6.03
2023-04-07T07:37:57.952Z,6.53
2023-04-07T07:40:24.383Z,6.05
2023-04-07T07:42:50.684Z,5.97
2023-04-07T07:45:19.154Z,5.60
2023-04-07T07:47:45.518Z,5.88
2023-04-07T07:50:11.468Z,6.18
2023-04-07T07:52:37.337Z,5.40
2023-04-07T07:55:03.300Z,6.43
2023-04-07T07:57:30.606Z,6.55
2023-04-07T07:59:56.507Z,6.93
2023-04-07T08:02:22.927Z,5.78
2023-04-07T08:04:48.911Z,6.70
2023-04-07T08:07:15.765Z,5.60
2023-04-07T08:09:41.583Z,6.97
2023-04-07T08:12:07.519Z,6.72
2023-04-07T08:14:33.448Z,5.30
2023-04-07T08:16:59.338Z,5.82
2023-04-07T08:19:25.393Z,5.70
2023-04-07T08:21:51.281Z,6.07
2023-04-07T08:24:17.205Z,5.97
2023-04-07T08:26:44.916Z,5.35
2023-04-07T08:29:10.744Z,5.13
2023-04-07T08:31:37.061Z,5.95
2023-04-07T08:34:03.086Z,6.00
2023-04-07T08:36:29.906Z,5.25
2023-04-07T08:38:56.338Z,5.55
2023-04-07T08:41:38.324Z,5.65
2023-04-07T08:44:04.291Z,5.25
2023-04-07T08:46:40.300Z,5.38
2023-04-07T08:49:10.389Z,5.53
2023-04-07T08:51:37.736Z,4.82
2023-04-07T08:54:06.719Z,5.50
2023-04-07T08:56:33.545Z,5.65
2023-04-07T08:59:00.020Z,4.72
2023-04-07T09:01:26.019Z,5.18
2023-04-07T09:03:52.223Z,5.30
2023-04-07T09:06:18.338Z,6.10
2023-04-07T09:08:44.180Z,5.47
2023-04-07T09:11:11.588Z,5.28
2023-04-07T09:13:37.406Z,4.95
2023-04-07T09:16:09.675Z,4.47
2023-04-07T09:18:36.654Z,5.60
2023-04-07T09:21:03.728Z,4.90
2023-04-07T09:23:33.853Z,3.83
2023-04-07T09:26:01.435Z,4.22
2023-04-07T09:28:43.748Z,3.70
2023-04-07T09:31:09.604Z,4.18
2023-04-07T09:33:36.115Z,3.78
2023-04-07T09:36:02.885Z,4.07
2023-04-07T09:38:35.927Z,3.55
2023-04-07T09:41:08.842Z,4.80
2023-04-07T09:43:39.879Z,3.85
2023-04-07T09:46:26.072Z,3.65
2023-04-07T09:49:01.141Z,3.88
2023-04-07T09:51:26.975Z,3.28
2023-04-07T09:53:53.031Z,3.47
2023-04-07T09:56:21.672Z,3.67
2023-04-07T09:58:48.078Z,3.35
2023-04-07T10:01:16.139Z,4.13
2023-04-07T10:03:42.292Z,3.85
2023-04-07T10:06:08.401Z,4.05
2023-04-07T10:08:35.921Z,4.38
2023-04-07T10:11:04.847Z,3.83
2023-04-07T10:13:31.628Z,2.80
2023-04-07T10:16:26.431Z,3.50
2023-04-07T10:18:52.618Z,3.92
2023-04-07T10:21:18.897Z,3.35
2023-04-07T10:23:53.758Z,4.45
2023-04-07T10:26:21.190Z,3.28
2023-04-07T10:28:49.696Z,4.32
2023-04-07T10:31:16.436Z,4.50
2023-04-07T10:33:50.101Z,3.58
2023-04-07T10:36:17.248Z,4.13
2023-04-07T10:39:03.579Z,3.72
2023-04-07T10:41:39.498Z,4.32
2023-04-07T10:44:06.162Z,3.90
2023-04-07T10:46:51.468Z,4.30
2023-04-07T10:49:19.078Z,2.63
2023-04-07T10:52:05.096Z,3.65
2023-04-07T10:54:30.872Z,3.08
2023-04-07T10:57:02.798Z,3.00
2023-04-07T10:59:32.211Z,2.50
2023-04-07T11:02:17.135Z,2.83
2023-04-07T11:04:50.562Z,2.92
2023-04-07T11:07:19.216Z,2.55
2023-04-07T11:09:45.415Z,3.25
2023-04-07T11:12:23.999Z,2.08
2023-04-07T11:14:50.282Z,2.45
2023-04-07T11:17:18.728Z,2.63
2023-04-07T11:19:54.236Z,2.42
2023-04-07T11:24:48.958Z,2.70
2023-04-07T11:27:15.569Z,2.53
2023-04-07T11:29:41.565Z,2.38
2023-04-07T11:32:07.862Z,2.50
2023-04-07T11:34:35.034Z,2.67
2023-04-07T11:37:19.341Z,2.53
2023-04-07T11:39:50.618Z,1.92
2023-04-07T11:42:17.996Z,2.00
2023-04-07T11:44:49.347Z,2.47
2023-04-07T11:47:21.821Z,2.10
2023-04-07T11:49:48.273Z,2.35
2023-04-07T11:52:14.877Z,2.10
2023-04-07T11:54:46.461Z,2.50
2023-04-07T11:57:13.114Z,2.88
2023-04-07T11:59:40.018Z,2.60
2023-04-07T12:02:06.470Z,2.85
2023-04-07T12:04:33.130Z,2.50
2023-04-07T12:07:09.575Z,2.88
2023-04-07T12:09:35.724Z,2.95
2023-04-07T12:12:05.137Z,2.50
2023-04-07T12:14:31.618Z,2.08
2023-04-07T12:16:58.376Z,1.77
2023-04-07T12:19:29.833Z,2.53
2023-04-07T12:21:56.260Z,2.55
2023-04-07T12:24:23.199Z,2.90
2023-04-07T12:26:49.197Z,3.20
2023-04-07T12:29:16.487Z,2.78
2023-04-07T12:31:43.214Z,2.97
2023-04-07T12:34:10.757Z,3.20
2023-04-07T12:36:37.631Z,3.25
2023-04-07T12:39:03.622Z,3.47
2023-04-07T12:41:29.486Z,2.65
2023-04-07T12:43:55.425Z,4.15
2023-04-07T12:46:40.296Z,2.80
2023-04-07T12:49:06.266Z,3.50
2023-04-07T12:51:33.549Z,3.63
2023-04-07T12:54:00.270Z,3.53
2023-04-07T12:56:27.428Z,2.80
2023-04-07T12:58:53.888Z,2.30
2023-04-07T13:01:20.052Z,4.07
2023-04-07T13:03:46.324Z,2.92
2023-04-07T13:06:12.395Z,2.80
2023-04-07T13:08:39.006Z,2.78
2023-04-07T13:11:05.088Z,3.00
2023-04-07T13:13:31.052Z,3.03
2023-04-07T13:15:57.278Z,3.45
2023-04-07T13:18:23.267Z,3.55
2023-04-07T13:21:03.032Z,3.80
2023-04-07T13:23:42.690Z,2.47
2023-04-07T13:26:09.306Z,2.22
2023-04-07T13:28:35.252Z,2.55
2023-04-07T13:31:01.145Z,3.10
2023-04-07T13:33:27.034Z,4.40
2023-04-07T13:35:52.885Z,2.22
2023-04-07T13:38:18.754Z,2.50
2023-04-07T13:40:44.668Z,2.60
2023-04-07T13:43:12.306Z,2.60
2023-04-07T13:45:44.415Z,2.38
2023-04-07T13:48:10.352Z,2.47
2023-04-07T13:50:36.494Z,1.85
2023-04-07T13:53:02.366Z,2.38
2023-04-07T13:55:28.449Z,1.90
2023-04-07T13:57:54.323Z,1.70
2023-04-07T14:00:20.841Z,2.47
2023-04-07T14:02:48.088Z,2.25
2023-04-07T14:05:14.120Z,2.30
2023-04-07T14:07:40.134Z,1.48
2023-04-07T14:10:08.243Z,1.58
2023-04-07T14:12:36.640Z,1.70
2023-04-07T14:15:03.711Z,1.50
2023-04-07T14:17:29.551Z,1.60
2023-04-07T14:19:55.740Z,1.55
2023-04-07T14:22:22.924Z,2.38
2023-04-07T14:24:49.531Z,1.77
2023-04-07T14:27:20.146Z,1.55
2023-04-07T14:29:47.544Z,1.75
2023-04-07T14:32:13.591Z,2.08
2023-04-07T14:34:39.328Z,1.63
2023-04-07T14:37:05.611Z,1.83
2023-04-07T14:39:32.228Z,2.05
2023-04-07T14:41:58.452Z,1.98
2023-04-07T14:44:24.347Z,1.88
2023-04-07T14:46:50.163Z,2.17
2023-04-07T14:49:16.332Z,1.83
2023-04-07T14:51:42.467Z,2.30
2023-04-07T14:54:08.586Z,2.35
2023-04-07T14:56:34.559Z,2.28
2023-04-07T14:59:00.652Z,2.33
2023-04-07T15:01:26.776Z,2.17
2023-04-07T15:03:53.293Z,2.70
2023-04-07T15:06:19.833Z,2.47
2023-04-07T15:08:46.657Z,3.83
2023-04-07T15:13:55.734Z,2.42
2023-04-07T15:16:40.757Z,2.63
2023-04-07T15:19:06.793Z,3.67
2023-04-07T15:21:34.717Z,2.53
2023-04-07T15:24:00.633Z,2.88
2023-04-07T15:26:26.539Z,2.65
2023-04-07T15:28:53.411Z,3.22
2023-04-07T15:31:21.644Z,3.30
2023-04-07T15:33:48.004Z,2.88
2023-04-07T15:36:14.077Z,3.47
2023-04-07T15:38:40.016Z,2.85
2023-04-07T15:41:05.948Z,3.10
2023-04-07T15:43:31.755Z,3.20
2023-04-07T15:45:58.097Z,3.50
2023-04-07T15:48:24.016Z,3.58
2023-04-07T15:50:54.662Z,2.83
2023-04-07T15:56:01.959Z,3.25
2023-04-07T15:58:31.014Z,2.88
2023-04-07T16:00:57.359Z,3.72
2023-04-07T16:03:23.513Z,2.72
2023-04-07T16:05:52.414Z,2.97
2023-04-07T16:08:27.109Z,2.88
2023-04-07T16:10:55.177Z,2.70
2023-04-07T16:13:23.839Z,2.28
2023-04-07T16:15:57.441Z,2.58
2023-04-07T16:18:25.607Z,2.53
2023-04-07T16:20:52.958Z,2.47
2023-04-07T16:23:19.125Z,2.47
2023-04-07T16:25:45.275Z,2.58
2023-04-07T16:28:11.244Z,3.00
2023-04-07T16:30:41.949Z,2.50
2023-04-07T16:35:37.721Z,2.38
2023-04-07T16:38:05.506Z,2.70
2023-04-07T16:40:32.107Z,2.70
2023-04-07T16:42:58.054Z,2.53
2023-04-07T16:45:25.787Z,2.28
2023-04-07T16:47:51.679Z,2.47
2023-04-07T16:50:17.768Z,2.65
2023-04-07T16:52:43.611Z,3.00
2023-04-07T16:55:10.153Z,2.50
2023-04-07T16:57:36.045Z,2.97
2023-04-07T17:00:01.897Z,3.10
2023-04-07T17:02:28.053Z,2.65
2023-04-07T17:04:54.206Z,2.67
2023-04-07T17:07:20.311Z,3.03
2023-04-07T17:09:46.909Z,3.30
2023-04-07T17:12:13.156Z,3.38
2023-04-07T17:14:38.978Z,2.75
2023-04-07T17:17:18.189Z,3.20
2023-04-07T17:19:44.074Z,3.35
2023-04-07T17:22:10.791Z,3.08
2023-04-07T17:24:36.639Z,2.83
2023-04-07T17:27:02.867Z,3.28
2023-04-07T17:29:30.766Z,2.92
2023-04-07T17:31:56.561Z,3.20
2023-04-07T17:34:22.484Z,2.85
2023-04-07T17:36:48.736Z,3.25
2023-04-07T17:39:14.634Z,2.80
2023-04-07T17:41:40.988Z,3.80
2023-04-07T17:44:07.869Z,3.20
2023-04-07T17:46:55.934Z,4.45
2023-04-07T17:49:22.454Z,2.92
2023-04-07T17:51:48.536Z,3.42
2023-04-07T17:54:17.999Z,3.05
2023-04-07T17:56:43.964Z,3.25
2023-04-07T17:59:13.053Z,3.72
2023-04-07T18:01:40.196Z,4.05
2023-04-07T18:04:06.822Z,3.90
2023-04-07T18:06:32.871Z,4.20
2023-04-07T18:09:00.292Z,3.92
2023-04-07T18:11:27.753Z,4.07
2023-04-07T18:14:00.188Z,4.50
2023-04-07T18:16:26.262Z,4.00
2023-04-07T18:18:55.675Z,3.53
2023-04-07T18:21:21.503Z,3.25
2023-04-07T18:23:47.970Z,4.05
2023-04-07T18:26:14.850Z,3.83
2023-04-07T18:28:41.304Z,4.13
2023-04-07T18:31:07.637Z,3.83
2023-04-07T18:33:34.429Z,5.20
2023-04-07T18:36:06.633Z,5.80
2023-04-07T18:38:32.930Z,5.05
2023-04-07T18:40:59.234Z,5.05
2023-04-07T18:43:26.200Z,4.47
2023-04-07T18:45:55.471Z,4.63
2023-04-07T18:48:21.437Z,4.35
2023-04-07T18:50:51.671Z,4.88
2023-04-07T18:53:22.115Z,4.88
2023-04-07T18:55:52.576Z,4.20
2023-04-07T18:58:19.456Z,4.00
2023-04-07T19:00:45.381Z,4.60
2023-04-07T19:03:12.023Z,4.30
2023-04-07T19:05:42.016Z,4.53
2023-04-07T19:08:08.103Z,3.85
2023-04-07T19:10:34.763Z,3.97
2023-04-07T19:13:01.244Z,4.35
2023-04-07T19:15:34.237Z,4.63
2023-04-07T19:18:03.434Z,5.10
2023-04-07T19:20:29.808Z,3.78
2023-04-07T19:22:56.961Z,4.50
2023-04-07T19:25:23.401Z,4.72
2023-04-07T19:27:50.380Z,4.20
2023-04-07T19:30:17.069Z,3.95
2023-04-07T19:32:51.335Z,4.28
2023-04-07T19:35:17.581Z,3.75
2023-04-07T19:37:48.405Z,4.20
2023-04-07T19:40:14.807Z,4.28
2023-04-07T19:42:41.909Z,3.65
2023-04-07T19:45:09.337Z,4.15
2023-04-07T19:47:39.356Z,4.13
2023-04-07T19:50:31.541Z,3.25
2023-04-07T19:56:21.378Z,4.00
2023-04-07T19:58:47.356Z,5.07
2023-04-07T20:01:17.358Z,5.97
2023-04-07T20:03:44.820Z,4.32
2023-04-07T20:15:17.657Z,4.43
2023-04-07T20:26:47.298Z,3.97
2023-04-07T20:37:46.389Z,3.63
2023-04-07T20:40:12.407Z,3.17
2023-04-07T20:42:49.346Z,3.63
2023-04-07T20:45:15.405Z,4.30
2023-04-07T20:47:41.743Z,3.95
2023-04-07T20:50:08.186Z,3.92
2023-04-07T20:52:38.860Z,3.88
2023-04-07T20:55:05.805Z,4.40
2023-04-07T20:57:33.059Z,4.53
2023-04-07T20:59:58.916Z,4.20
2023-04-07T21:02:25.342Z,3.33
2023-04-07T21:04:56.421Z,4.07
2023-04-07T21:07:23.056Z,5.18
2023-04-07T21:10:04.621Z,5.07
2023-04-07T21:12:30.800Z,4.55
2023-04-07T21:14:58.359Z,4.97
2023-04-07T21:17:49.511Z,5.45
2023-04-07T21:20:15.880Z,5.85
2023-04-07T21:22:41.638Z,4.53
2023-04-07T21:25:07.676Z,4.38
2023-04-07T21:27:33.956Z,5.22
2023-04-07T21:30:00.143Z,5.60
2023-04-07T21:32:26.054Z,6.00
2023-04-07T21:34:52.480Z,6.05
2023-04-07T21:37:18.295Z,5.53
2023-04-07T21:39:44.089Z,7.25
2023-04-07T21:42:09.873Z,6.40
2023-04-07T21:44:35.710Z,5.72
2023-04-07T21:47:02.249Z,6.97
2023-04-07T21:49:28.121Z,6.88
2023-04-07T21:51:56.047Z,6.80
2023-04-07T21:54:22.384Z,6.35
2023-04-07T21:56:48.707Z,7.72
2023-04-07T21:59:16.323Z,7.60
2023-04-07T22:01:43.030Z,7.85
2023-04-07T22:04:09.079Z,6.57
2023-04-07T22:06:35.019Z,8.30
2023-04-07T22:09:02.452Z,8.63
2023-04-07T22:11:29.059Z,6.55
2023-04-07T22:13:55.108Z,7.70
2023-04-07T22:16:25.339Z,8.88
2023-04-07T22:18:51.274Z,8.10
2023-04-07T22:21:17.320Z,7.75
2023-04-07T22:23:43.489Z,6.18
2023-04-07T22:26:09.559Z,8.13
2023-04-07T22:28:35.810Z,8.38
2023-04-07T22:31:01.857Z,9.25
2023-04-07T22:33:27.992Z,8.48
2023-04-07T22:35:53.804Z,9.80
2023-04-07T22:38:21.452Z,9.32
2023-04-07T22:40:48.228Z,8.45
2023-04-07T22:43:14.096Z,9.23
2023-04-07T22:45:40.036Z,8.05
2023-04-07T22:48:06.030Z,7.88
2023-04-07T22:50:31.818Z,8.55
2023-04-07T22:52:57.583Z,8.88
2023-04-07T22:55:23.437Z,7.68
2023-04-07T22:57:49.195Z,7.65
2023-04-07T23:00:14.997Z,7.65
2023-04-07T23:02:41.379Z,7.05
2023-04-07T23:05:09.602Z,7.20
2023-04-07T23:07:36.007Z,7.00
2023-04-07T23:10:02.249Z,7.78
2023-04-07T23:12:28.063Z,7.97
2023-04-07T23:14:53.816Z,8.88
2023-04-07T23:17:19.593Z,8.75
2023-04-07T23:19:46.051Z,7.68
2023-04-07T23:22:11.854Z,7.40
2023-04-07T23:24:37.609Z,7.85
2023-04-07T23:27:03.514Z,8.02
2023-04-07T23:29:29.259Z,8.00
2023-04-07T23:31:55.214Z,8.18
2023-04-07T23:34:21.018Z,8.70
2023-04-07T23:36:46.962Z,7.45
2023-04-07T23:39:12.679Z,8.10
2023-04-07T23:41:39.045Z,8.02
2023-04-07T23:44:05.010Z,7.28
2023-04-07T23:46:30.763Z,7.30
2023-04-07T23:48:56.519Z,8.27
2023-04-07T23:51:22.234Z,5.72
2023-04-07T23:53:48.012Z,7.70
2023-04-07T23:56:13.777Z,6.93
2023-04-07T23:58:39.696Z,7.15
